createdAt,value
2018-12-08T00:00:13.955Z,16.52
2018-12-08T00:02:47.819Z,16.50
2018-12-08T00:05:20.577Z,16.48
2018-12-08T00:07:52.464Z,16.49
2018-12-08T00:10:24.110Z,16.49
2018-12-08T00:12:56.104Z,16.46
2018-12-08T00:15:28.059Z,16.46
2018-12-08T00:18:00.162Z,16.39
2018-12-08T00:20:32.319Z,16.29
2018-12-08T00:23:04.328Z,16.31
2018-12-08T00:25:36.411Z,16.27
2018-12-08T00:28:08.152Z,16.27
2018-12-08T00:30:49.499Z,16.31
2018-12-08T00:33:21.594Z,16.31
2018-12-08T00:35:53.427Z,16.28
2018-12-08T00:38:25.244Z,16.23
2018-12-08T00:40:56.834Z,16.12
2018-12-08T00:43:29.438Z,16.11
2018-12-08T00:46:01.082Z,16.05
2018-12-08T00:48:32.665Z,16.08
2018-12-08T00:51:04.191Z,16.06
2018-12-08T00:53:36.272Z,16.13
2018-12-08T00:56:07.874Z,16.26
2018-12-08T00:58:40.246Z,16.16
2018-12-08T01:01:11.919Z,16.12
2018-12-08T01:03:44.118Z,16.10
2018-12-08T01:06:16.170Z,16.05
2018-12-08T01:09:06.556Z,16.08
2018-12-08T01:11:40.559Z,16.10
2018-12-08T01:14:12.503Z,16.11
2018-12-08T01:16:44.195Z,16.05
2018-12-08T01:19:16.061Z,16.01
2018-12-08T01:21:48.246Z,16.03
2018-12-08T01:24:22.629Z,15.99
2018-12-08T01:26:54.415Z,16.03
2018-12-08T01:29:26.137Z,16.03
2018-12-08T01:31:58.264Z,15.97
2018-12-08T01:34:30.080Z,15.98
2018-12-08T01:37:02.111Z,15.96
2018-12-08T01:39:34.453Z,15.99
2018-12-08T01:42:07.014Z,16.04
2018-12-08T01:44:39.229Z,16.03
2018-12-08T01:47:10.945Z,16.06
2018-12-08T01:49:43.050Z,15.97
2018-12-08T01:52:15.059Z,15.95
2018-12-08T01:54:47.291Z,15.98
2018-12-08T01:57:19.091Z,16.05
2018-12-08T01:59:52.489Z,16.08
2018-12-08T02:02:24.545Z,15.96
2018-12-08T02:04:56.633Z,15.99
2018-12-08T02:07:29.563Z,17.49
2018-12-08T02:10:01.629Z,17.87
2018-12-08T02:12:34.861Z,18.04
2018-12-08T02:15:07.184Z,18.13
2018-12-08T02:17:39.277Z,18.07
2018-12-08T02:20:11.496Z,18.07
2018-12-08T02:22:43.560Z,18.13
2018-12-08T02:25:15.776Z,18.18
2018-12-08T02:27:47.873Z,18.23
2018-12-08T02:30:19.806Z,18.24
2018-12-08T02:32:51.919Z,18.26
2018-12-08T02:35:24.273Z,18.31
2018-12-08T02:37:56.613Z,18.30
2018-12-08T02:40:28.696Z,18.32
2018-12-08T02:43:00.625Z,18.28
2018-12-08T02:45:32.670Z,18.27
2018-12-08T02:48:04.200Z,18.33
2018-12-08T02:50:36.276Z,18.38
2018-12-08T02:53:08.347Z,18.41
2018-12-08T02:55:40.591Z,18.44
2018-12-08T02:58:12.297Z,18.47
2018-12-08T03:00:44.980Z,18.48
2018-12-08T03:03:16.908Z,18.48
2018-12-08T03:05:49.168Z,18.52
2018-12-08T03:08:21.762Z,18.51
2018-12-08T03:10:54.216Z,18.49
2018-12-08T03:13:27.190Z,18.54
2018-12-08T03:15:59.603Z,18.60
2018-12-08T03:19:34.263Z,18.64
2018-12-08T03:22:06.009Z,18.72
2018-12-08T03:24:37.753Z,18.73
2018-12-08T03:27:09.773Z,18.73
2018-12-08T03:29:41.874Z,18.76
2018-12-08T03:32:13.535Z,18.84
2018-12-08T03:34:45.491Z,18.82
2018-12-08T03:37:17.068Z,18.82
2018-12-08T03:39:49.251Z,18.93
2018-12-08T03:42:21.124Z,18.92
2018-12-08T03:44:53.169Z,18.91
2018-12-08T03:47:25.054Z,18.94
2018-12-08T03:49:57.152Z,19.01
2018-12-08T03:52:30.306Z,19.01
2018-12-08T03:55:01.910Z,19.06
2018-12-08T03:57:35.939Z,19.00
2018-12-08T04:00:08.210Z,18.89
2018-12-08T04:02:40.857Z,19.00
2018-12-08T04:05:13.001Z,18.99
2018-12-08T04:07:45.267Z,18.99
2018-12-08T04:10:17.922Z,19.05
2018-12-08T04:12:49.899Z,19.01
2018-12-08T04:15:21.899Z,19.06
2018-12-08T04:17:54.327Z,19.11
2018-12-08T04:20:26.576Z,19.07
2018-12-08T04:22:58.532Z,19.04
2018-12-08T04:25:30.312Z,19.06
2018-12-08T04:28:02.241Z,19.19
2018-12-08T04:30:34.015Z,19.17
2018-12-08T04:33:05.894Z,19.20
2018-12-08T04:35:37.800Z,19.08
2018-12-08T04:38:10.118Z,19.23
2018-12-08T04:40:42.472Z,19.26
2018-12-08T04:43:14.330Z,19.30
2018-12-08T04:45:46.383Z,19.14
2018-12-08T04:48:19.445Z,19.11
2018-12-08T04:50:52.142Z,19.02
2018-12-08T04:53:24.038Z,19.20
2018-12-08T04:55:56.107Z,19.38
2018-12-08T04:58:28.113Z,19.34
2018-12-08T05:00:59.827Z,19.35
2018-12-08T05:03:32.037Z,19.34
2018-12-08T05:06:03.871Z,19.28
2018-12-08T05:08:36.259Z,19.33
2018-12-08T05:11:08.732Z,19.30
2018-12-08T05:13:40.655Z,19.36
2018-12-08T05:16:12.469Z,19.31
2018-12-08T05:18:44.548Z,19.35
2018-12-08T05:21:16.826Z,19.35
2018-12-08T05:23:49.429Z,19.35
2018-12-08T05:26:21.295Z,19.39
2018-12-08T05:28:53.570Z,19.44
2018-12-08T05:31:25.548Z,19.45
2018-12-08T05:33:57.642Z,19.51
2018-12-08T05:36:29.744Z,19.53
2018-12-08T05:39:01.618Z,19.56
2018-12-08T05:41:37.270Z,19.54
2018-12-08T05:44:09.530Z,19.55
2018-12-08T05:46:41.301Z,19.61
2018-12-08T05:49:13.341Z,19.53
2018-12-08T05:51:45.155Z,19.53
2018-12-08T05:54:17.626Z,19.57
2018-12-08T05:56:49.533Z,19.68
2018-12-08T05:59:21.438Z,19.80
2018-12-08T06:01:53.500Z,19.74
2018-12-08T06:04:25.654Z,19.74
2018-12-08T06:06:57.310Z,19.74
2018-12-08T06:09:29.000Z,19.82
2018-12-08T06:12:01.058Z,19.78
2018-12-08T06:14:33.051Z,19.87
2018-12-08T06:17:05.722Z,19.99
2018-12-08T06:19:37.355Z,19.92
2018-12-08T06:22:09.095Z,19.95
2018-12-08T06:24:42.373Z,20.00
2018-12-08T06:27:22.418Z,20.13
2018-12-08T06:29:58.588Z,20.03
2018-12-08T06:32:31.036Z,20.06
2018-12-08T06:35:02.680Z,20.19
2018-12-08T06:37:34.340Z,20.29
2018-12-08T06:40:06.600Z,20.32
2018-12-08T06:42:38.903Z,20.09
2018-12-08T06:54:39.920Z,20.01
2018-12-08T06:57:11.986Z,20.15
2018-12-08T07:02:44.848Z,20.32
2018-12-08T07:05:18.719Z,20.21
2018-12-08T07:07:50.841Z,20.35
2018-12-08T07:10:22.600Z,20.43
2018-12-08T07:12:54.433Z,20.53
2018-12-08T07:15:26.496Z,20.62
2018-12-08T07:17:58.166Z,20.40
2018-12-08T07:20:30.215Z,20.38
2018-12-08T07:23:02.101Z,20.45
2018-12-08T07:25:34.604Z,20.57
2018-12-08T07:28:06.380Z,20.66
2018-12-08T07:30:38.176Z,20.49
2018-12-08T07:33:10.112Z,20.55
2018-12-08T07:35:43.552Z,20.74
2018-12-08T07:38:15.738Z,20.62
2018-12-08T07:40:50.272Z,20.62
2018-12-08T07:43:22.961Z,20.54
2018-12-08T07:45:54.563Z,20.75
2018-12-08T07:48:27.059Z,20.66
2018-12-08T07:50:58.534Z,20.73
2018-12-08T07:53:30.498Z,20.78
2018-12-08T07:56:05.572Z,20.79
2018-12-08T07:58:37.265Z,20.78
2018-12-08T08:01:09.846Z,20.74
2018-12-08T08:04:02.983Z,20.64
2018-12-08T08:06:36.912Z,20.71
2018-12-08T08:09:20.197Z,20.69
2018-12-08T08:11:53.766Z,20.64
2018-12-08T08:14:26.664Z,20.72
2018-12-08T08:17:04.977Z,20.74
2018-12-08T08:19:39.655Z,21.05
2018-12-08T08:22:11.069Z,20.93
2018-12-08T08:24:42.722Z,20.96
2018-12-08T08:27:14.282Z,20.97
2018-12-08T08:29:50.945Z,20.91
2018-12-08T08:32:22.683Z,20.87
2018-12-08T08:34:54.361Z,21.09
2018-12-08T08:37:27.361Z,21.05
2018-12-08T08:43:02.592Z,20.92
2018-12-08T08:45:34.073Z,21.12
2018-12-08T08:48:05.717Z,21.15
2018-12-08T08:50:39.661Z,20.93
2018-12-08T08:53:11.344Z,20.99
2018-12-08T08:55:51.903Z,21.09
2018-12-08T09:01:26.539Z,21.10
2018-12-08T09:03:59.313Z,20.91
2018-12-08T09:06:40.022Z,20.99
2018-12-08T09:09:20.665Z,21.00
2018-12-08T09:12:09.297Z,20.95
2018-12-08T09:14:44.209Z,21.00
2018-12-08T09:17:32.276Z,20.88
2018-12-08T09:20:04.798Z,20.84
2018-12-08T09:25:34.313Z,21.18
2018-12-08T09:28:06.005Z,21.23
2018-12-08T09:30:37.613Z,21.15
2018-12-08T09:33:09.282Z,21.22
2018-12-08T09:35:42.682Z,21.18
2018-12-08T09:38:16.406Z,21.46
2018-12-08T09:44:01.980Z,21.33
2018-12-08T09:46:33.494Z,21.42
2018-12-08T09:49:05.100Z,21.26
2018-12-08T09:51:36.685Z,21.13
2018-12-08T09:54:08.391Z,21.12
2018-12-08T09:56:51.069Z,21.19
2018-12-08T09:59:22.579Z,21.27
2018-12-08T10:01:54.128Z,21.30
2018-12-08T10:04:26.428Z,21.17
2018-12-08T10:06:58.845Z,21.14
2018-12-08T10:09:33.700Z,21.29
2018-12-08T10:12:14.711Z,21.21
2018-12-08T10:17:53.912Z,21.24
2018-12-08T10:20:43.710Z,21.18
2018-12-08T10:23:23.033Z,21.22
2018-12-08T10:26:01.645Z,21.27
2018-12-08T10:28:33.670Z,21.24
2018-12-08T10:31:05.239Z,21.22
2018-12-08T10:33:52.848Z,21.22
2018-12-08T10:36:28.515Z,21.19
2018-12-08T10:39:10.404Z,21.18
2018-12-08T10:41:41.923Z,21.25
2018-12-08T10:44:16.389Z,21.24
2018-12-08T10:47:00.008Z,21.22
2018-12-08T10:49:32.674Z,21.33
2018-12-08T10:52:09.031Z,21.27
2018-12-08T10:54:47.244Z,21.22
2018-12-08T10:57:22.406Z,21.27
2018-12-08T11:03:08.800Z,21.12
2018-12-08T11:05:40.209Z,21.10
2018-12-08T11:08:12.232Z,21.07
2018-12-08T11:10:44.099Z,21.07
2018-12-08T11:13:17.803Z,21.08
2018-12-08T11:15:50.372Z,21.03
2018-12-08T11:18:21.949Z,21.00
2018-12-08T11:20:53.428Z,20.99
2018-12-08T11:23:25.336Z,21.05
2018-12-08T11:25:58.432Z,21.10
2018-12-08T11:28:31.041Z,21.15
2018-12-08T11:31:06.493Z,21.19
2018-12-08T11:33:37.976Z,21.23
2018-12-08T11:36:09.587Z,21.19
2018-12-08T11:38:42.360Z,21.21
2018-12-08T11:41:14.835Z,21.16
2018-12-08T11:43:47.339Z,21.15
2018-12-08T11:46:19.240Z,21.15
2018-12-08T11:48:50.913Z,21.14
2018-12-08T11:51:22.352Z,21.11
2018-12-08T11:56:58.842Z,21.14
2018-12-08T11:59:30.429Z,21.10
2018-12-08T12:02:02.146Z,21.11
2018-12-08T12:04:33.769Z,21.08
2018-12-08T12:07:05.358Z,21.05
2018-12-08T12:09:40.876Z,21.08
2018-12-08T12:12:12.505Z,20.98
2018-12-08T12:14:49.654Z,20.91
2018-12-08T12:17:23.536Z,20.89
2018-12-08T12:19:55.150Z,20.95
2018-12-08T12:22:26.941Z,21.06
2018-12-08T12:25:03.739Z,21.04
2018-12-08T12:27:35.667Z,21.24
2018-12-08T12:30:08.533Z,21.25
2018-12-08T12:32:41.351Z,21.31
2018-12-08T12:35:14.888Z,21.28
2018-12-08T12:37:46.592Z,21.19
2018-12-08T12:40:28.466Z,21.33
2018-12-08T12:43:01.131Z,21.23
2018-12-08T12:45:33.995Z,21.18
2018-12-08T12:48:11.126Z,21.14
2018-12-08T12:50:43.667Z,21.16
2018-12-08T12:53:15.376Z,21.15
2018-12-08T12:55:46.995Z,21.09
2018-12-08T12:58:25.130Z,21.11
2018-12-08T13:01:05.543Z,21.20
2018-12-08T13:03:40.796Z,21.10
2018-12-08T13:06:25.364Z,21.03
2018-12-08T13:08:56.986Z,21.01
2018-12-08T13:11:30.046Z,21.01
2018-12-08T13:14:01.817Z,21.08
2018-12-08T13:16:34.399Z,21.03
2018-12-08T13:19:06.737Z,21.11
2018-12-08T13:21:38.330Z,21.16
2018-12-08T13:24:10.018Z,21.11
2018-12-08T13:26:41.593Z,21.07
2018-12-08T13:29:13.244Z,21.21
2018-12-08T13:31:56.943Z,21.20
2018-12-08T13:34:30.927Z,21.10
2018-12-08T13:37:08.695Z,21.02
2018-12-08T13:39:40.462Z,20.99
2018-12-08T13:42:12.630Z,20.98
2018-12-08T13:44:44.327Z,21.03
2018-12-08T13:47:15.913Z,21.16
2018-12-08T13:49:58.363Z,21.23
2018-12-08T13:52:33.719Z,21.23
2018-12-08T13:55:10.624Z,21.27
2018-12-08T13:57:43.353Z,20.98
2018-12-08T14:00:18.334Z,20.87
2018-12-08T14:02:49.902Z,20.71
2018-12-08T14:05:21.557Z,20.76
2018-12-08T14:07:53.059Z,20.32
2018-12-08T14:10:24.753Z,20.20
2018-12-08T14:12:57.238Z,20.22
2018-12-08T14:15:29.011Z,20.14
2018-12-08T14:18:00.622Z,20.09
2018-12-08T14:20:34.771Z,20.04
2018-12-08T14:23:06.461Z,20.04
2018-12-08T14:25:38.128Z,20.00
2018-12-08T14:28:10.729Z,20.04
2018-12-08T14:30:42.298Z,19.97
2018-12-08T14:33:15.316Z,19.96
2018-12-08T14:35:47.361Z,19.99
2018-12-08T14:38:18.920Z,19.95
2018-12-08T14:40:51.610Z,19.93
2018-12-08T14:43:24.022Z,19.91
2018-12-08T14:45:55.779Z,19.88
2018-12-08T14:48:27.237Z,19.87
2018-12-08T14:51:00.464Z,19.85
2018-12-08T14:53:32.054Z,19.81
2018-12-08T14:56:03.840Z,19.81
2018-12-08T14:58:35.484Z,19.82
2018-12-08T15:01:07.215Z,19.81
2018-12-08T15:03:38.738Z,19.74
2018-12-08T15:06:11.476Z,19.78
2018-12-08T15:08:43.257Z,19.76
2018-12-08T15:11:15.087Z,19.74
2018-12-08T15:13:46.679Z,19.72
2018-12-08T15:16:18.403Z,19.72
2018-12-08T15:18:49.960Z,19.67
2018-12-08T15:21:22.372Z,19.69
2018-12-08T15:23:54.892Z,19.68
2018-12-08T15:26:26.529Z,19.66
2018-12-08T15:29:01.229Z,20.24
2018-12-08T15:31:37.584Z,19.72
2018-12-08T15:34:09.056Z,19.55
2018-12-08T15:36:40.804Z,19.51
2018-12-08T15:39:17.979Z,19.51
2018-12-08T15:41:50.626Z,19.46
2018-12-08T15:44:23.056Z,19.48
2018-12-08T15:46:54.623Z,19.46
2018-12-08T15:49:26.189Z,19.38
2018-12-08T15:51:59.859Z,19.36
2018-12-08T15:54:33.527Z,19.29
2018-12-08T15:57:05.224Z,19.30
2018-12-08T15:59:37.640Z,19.29
2018-12-08T16:02:10.210Z,19.25
2018-12-08T16:04:42.725Z,19.79
2018-12-08T16:07:19.183Z,20.24
2018-12-08T16:10:01.219Z,20.36
2018-12-08T16:12:33.359Z,20.39
2018-12-08T16:15:06.657Z,20.43
2018-12-08T16:17:38.544Z,20.43
2018-12-08T16:20:14.421Z,20.43
2018-12-08T16:22:49.795Z,20.36
2018-12-08T16:25:22.290Z,20.35
2018-12-08T16:27:58.802Z,20.33
2018-12-08T16:30:30.355Z,20.05
2018-12-08T16:33:02.963Z,20.20
2018-12-08T16:35:37.794Z,19.57
2018-12-08T16:38:10.312Z,19.35
2018-12-08T16:40:42.653Z,19.23
2018-12-08T16:43:19.689Z,19.19
2018-12-08T16:45:51.459Z,19.12
2018-12-08T16:48:23.678Z,19.11
2018-12-08T16:50:55.253Z,19.05
2018-12-08T16:53:27.409Z,19.03
2018-12-08T16:55:59.210Z,19.03
2018-12-08T16:58:32.163Z,19.03
2018-12-08T17:01:03.788Z,19.03
2018-12-08T17:03:37.455Z,19.00
2018-12-08T17:06:11.159Z,19.00
2018-12-08T17:08:48.491Z,18.96
2018-12-08T17:11:20.977Z,18.92
2018-12-08T17:13:52.625Z,18.90
2018-12-08T17:16:28.225Z,18.87
2018-12-08T17:19:00.935Z,18.86
2018-12-08T17:21:32.844Z,18.88
2018-12-08T17:24:05.084Z,18.83
2018-12-08T17:26:36.826Z,18.82
2018-12-08T17:29:08.485Z,18.83
2018-12-08T17:31:40.960Z,18.83
2018-12-08T17:34:12.554Z,18.84
2018-12-08T17:36:44.257Z,18.81
2018-12-08T17:39:16.068Z,18.79
2018-12-08T17:41:48.705Z,18.78
2018-12-08T17:44:21.169Z,18.72
2018-12-08T17:46:52.723Z,18.70
2018-12-08T17:49:24.636Z,18.66
2018-12-08T17:51:56.440Z,18.66
2018-12-08T17:54:28.466Z,18.63
2018-12-08T17:57:00.054Z,18.67
2018-12-08T17:59:31.603Z,18.69
2018-12-08T18:02:03.213Z,18.59
2018-12-08T18:04:34.671Z,18.57
2018-12-08T18:07:06.239Z,18.57
2018-12-08T18:09:38.375Z,18.55
2018-12-08T18:12:09.956Z,18.58
2018-12-08T18:14:41.746Z,18.55
2018-12-08T18:17:13.252Z,18.58
2018-12-08T18:19:44.720Z,18.56
2018-12-08T18:22:16.578Z,18.60
2018-12-08T18:24:48.966Z,18.60
2018-12-08T18:27:21.634Z,18.52
2018-12-08T18:29:53.338Z,18.52
2018-12-08T18:32:26.896Z,18.50
2018-12-08T18:34:58.490Z,18.49
2018-12-08T18:37:30.232Z,18.45
2018-12-08T18:40:02.854Z,18.42
2018-12-08T18:42:34.399Z,18.43
2018-12-08T18:45:06.263Z,18.42
2018-12-08T18:47:41.211Z,18.36
2018-12-08T18:50:13.142Z,18.31
2018-12-08T18:52:44.811Z,18.31
2018-12-08T18:55:16.656Z,18.24
2018-12-08T18:57:48.311Z,18.25
2018-12-08T19:00:19.984Z,18.23
2018-12-08T19:02:51.664Z,18.24
2018-12-08T19:05:23.382Z,18.22
2018-12-08T19:07:55.224Z,18.21
2018-12-08T19:10:30.519Z,18.18
2018-12-08T19:13:02.229Z,18.09
2018-12-08T19:15:37.940Z,18.05
2018-12-08T19:18:09.557Z,18.01
2018-12-08T19:20:41.468Z,18.08
2018-12-08T19:23:13.051Z,18.11
2018-12-08T19:25:45.088Z,18.06
2018-12-08T19:28:16.718Z,17.95
2018-12-08T19:30:48.388Z,18.02
2018-12-08T19:33:23.166Z,18.04
2018-12-08T19:35:58.599Z,18.09
2018-12-08T19:38:30.143Z,18.07
2018-12-08T19:41:01.690Z,18.08
2018-12-08T19:43:33.291Z,17.94
2018-12-08T19:46:12.649Z,17.83
2018-12-08T19:48:47.608Z,17.83
2018-12-08T19:51:20.269Z,17.89
2018-12-08T19:53:52.772Z,17.94
2018-12-08T19:56:25.825Z,17.86
2018-12-08T19:58:58.350Z,17.86
2018-12-08T20:01:30.993Z,17.81
2018-12-08T20:04:02.495Z,17.74
2018-12-08T20:06:35.253Z,17.70
2018-12-08T20:09:07.915Z,17.83
2018-12-08T20:11:40.011Z,17.78
2018-12-08T20:14:12.598Z,17.71
2018-12-08T20:16:47.891Z,17.72
2018-12-08T20:19:20.711Z,17.74
2018-12-08T20:21:54.408Z,17.70
2018-12-08T20:24:26.171Z,17.79
2018-12-08T20:26:59.486Z,17.69
2018-12-08T20:29:33.396Z,17.68
2018-12-08T20:32:06.739Z,17.76
2018-12-08T20:34:38.351Z,17.71
2018-12-08T20:37:11.088Z,17.68
2018-12-08T20:39:42.578Z,17.66
2018-12-08T20:42:14.202Z,17.64
2018-12-08T20:44:45.794Z,17.65
2018-12-08T20:47:17.370Z,17.61
2018-12-08T20:49:48.837Z,17.61
2018-12-08T20:52:21.615Z,17.63
2018-12-08T20:54:53.567Z,17.61
2018-12-08T20:57:26.006Z,17.62
2018-12-08T20:59:58.144Z,17.56
2018-12-08T21:02:29.916Z,17.48
2018-12-08T21:07:44.556Z,17.46
2018-12-08T21:10:16.118Z,17.42
2018-12-08T21:12:47.805Z,17.45
2018-12-08T21:15:19.343Z,17.45
2018-12-08T21:17:51.140Z,17.45
2018-12-08T21:20:22.690Z,17.40
2018-12-08T21:22:54.525Z,17.44
2018-12-08T21:25:26.201Z,17.45
2018-12-08T21:27:58.601Z,17.44
2018-12-08T21:30:30.022Z,17.37
2018-12-08T21:33:01.694Z,17.37
2018-12-08T21:35:33.574Z,17.30
2018-12-08T21:38:06.492Z,17.30
2018-12-08T21:40:38.531Z,17.26
2018-12-08T21:43:10.119Z,17.21
2018-12-08T21:45:41.870Z,17.22
2018-12-08T21:48:13.827Z,17.21
2018-12-08T21:50:45.625Z,17.21
2018-12-08T21:53:17.502Z,17.12
2018-12-08T21:55:50.170Z,17.14
2018-12-08T21:58:22.569Z,17.17
2018-12-08T22:00:54.533Z,17.21
2018-12-08T22:03:26.283Z,17.16
2018-12-08T22:05:57.682Z,17.10
2018-12-08T22:08:29.320Z,17.08
2018-12-08T22:11:00.955Z,17.09
2018-12-08T22:13:33.126Z,17.10
2018-12-08T22:16:04.558Z,17.10
2018-12-08T22:18:36.100Z,17.15
2018-12-08T22:21:07.705Z,17.17
2018-12-08T22:23:39.288Z,17.02
2018-12-08T22:26:10.890Z,16.93
2018-12-08T22:28:42.747Z,16.99
2018-12-08T22:31:14.318Z,16.99
2018-12-08T22:33:46.114Z,16.95
2018-12-08T22:36:17.529Z,16.91
2018-12-08T22:38:49.901Z,16.98
2018-12-08T22:41:21.881Z,17.06
2018-12-08T22:43:53.634Z,16.98
2018-12-08T22:46:25.411Z,16.96
2018-12-08T22:48:57.499Z,16.94
2018-12-08T22:51:28.964Z,16.91
2018-12-08T22:54:00.590Z,16.94
2018-12-08T22:56:32.152Z,16.91
2018-12-08T22:59:04.364Z,16.95
2018-12-08T23:01:35.837Z,16.85
2018-12-08T23:04:07.515Z,16.92
2018-12-08T23:06:38.870Z,16.93
2018-12-08T23:09:10.740Z,16.88
2018-12-08T23:11:44.599Z,16.87
2018-12-08T23:14:16.079Z,16.89
2018-12-08T23:16:47.887Z,16.89
2018-12-08T23:19:19.374Z,16.85
2018-12-08T23:21:51.395Z,16.81
2018-12-08T23:24:23.122Z,16.79
2018-12-08T23:26:54.541Z,16.83
2018-12-08T23:29:27.079Z,16.70
2018-12-08T23:31:58.924Z,16.71
2018-12-08T23:34:31.011Z,16.74
2018-12-08T23:37:02.695Z,16.74
2018-12-08T23:39:39.190Z,16.72
2018-12-08T23:42:10.696Z,16.73
2018-12-08T23:44:42.459Z,16.72
2018-12-08T23:47:14.111Z,16.68
2018-12-08T23:49:46.769Z,16.66
2018-12-08T23:52:18.669Z,16.62
2018-12-08T23:54:50.746Z,16.64
2018-12-08T23:57:22.556Z,16.66
2018-12-08T23:59:55.167Z,16.62
